Time;durP1;ratioP1;P1;durP2;ratioP2;P2;SDS_P1;SDS_P2;PMS_P1;PMS_P2;Temp;Humidity;BMP_temperature;BMP_pressure;BME280_temperature;BME280_humidity;BME280_pressure;Samples;Min_cycle;Max_cycle;Signal;HPM_P1;HPM_P2
2023/06/11 00:02:00;;;;;;;8.70;5.35;;;;;;;19.88;52.09;101692.69;6099530;19;20246;-69
2023/06/11 00:04:08;;;;;;;13.07;5.53;;;;;;;19.84;52.21;101693.00;6099173;19;20006;-70
2023/06/11 00:06:17;;;;;;;11.05;5.93;;;;;;;19.82;52.58;101689.56;6097395;19;20027;-69
2023/06/11 00:08:23;;;;;;;9.77;5.30;;;;;;;19.78;53.12;101683.59;6099343;19;20511;-70
2023/06/11 00:10:29;;;;;;;10.45;5.60;;;;;;;19.75;53.10;101686.47;6096595;19;20070;-69
2023/06/11 00:12:34;;;;;;;9.38;5.63;;;;;;;19.72;53.23;101686.63;6097003;19;20471;-71
2023/06/11 00:14:41;;;;;;;10.65;5.70;;;;;;;19.68;53.11;101683.31;6096499;19;20746;-69
2023/06/11 00:16:46;;;;;;;10.40;6.00;;;;;;;19.64;53.25;101684.47;6092088;19;20028;-70
2023/06/11 00:18:55;;;;;;;9.05;5.70;;;;;;;19.57;53.21;101685.81;6089260;19;20596;-71
2023/06/11 00:21:03;;;;;;;10.07;5.35;;;;;;;19.56;53.56;101684.09;6092341;19;20656;-70
2023/06/11 00:23:08;;;;;;;8.43;5.63;;;;;;;19.53;53.91;101682.47;6091847;19;20287;-71
2023/06/11 00:25:14;;;;;;;11.85;5.70;;;;;;;19.52;53.79;101687.91;6095304;19;20877;-71
2023/06/11 00:27:20;;;;;;;9.82;5.95;;;;;;;19.52;53.96;101687.91;6089847;19;20018;-70
2023/06/11 00:29:25;;;;;;;10.05;5.88;;;;;;;19.50;53.97;101679.16;6091805;19;20027;-69
2023/06/11 00:31:32;;;;;;;11.68;5.68;;;;;;;19.46;53.86;101680.34;6094334;19;20431;-71
2023/06/11 00:33:37;;;;;;;12.07;6.38;;;;;;;19.42;53.77;101686.81;6093062;19;20007;-70
2023/06/11 00:35:42;;;;;;;9.95;6.03;;;;;;;19.40;54.33;101680.72;6091662;19;20263;-70
2023/06/11 00:37:50;;;;;;;12.57;6.80;;;;;;;19.37;54.03;101672.91;6092159;19;20110;-70
2023/06/11 00:39:58;;;;;;;10.43;6.20;;;;;;;19.37;54.71;101678.25;6090148;19;20254;-71
2023/06/11 00:42:03;;;;;;;11.43;6.50;;;;;;;19.31;54.70;101676.84;6091497;19;20013;-70
2023/06/11 00:44:09;;;;;;;10.00;5.63;;;;;;;19.26;54.69;101674.44;6084821;19;20082;-70
2023/06/11 00:46:14;;;;;;;9.90;5.72;;;;;;;19.22;54.36;101672.94;6092564;19;20007;-71
2023/06/11 00:48:22;;;;;;;9.18;5.68;;;;;;;19.22;56.27;101672.94;6092973;19;20372;-69
2023/06/11 00:50:28;;;;;;;11.05;6.50;;;;;;;19.16;55.14;101665.31;6093058;19;20014;-68
2023/06/11 00:52:33;;;;;;;12.30;6.65;;;;;;;19.15;55.24;101671.63;6091188;19;20449;-69
2023/06/11 00:54:41;;;;;;;7.97;5.65;;;;;;;19.13;55.37;101670.84;6092644;19;20006;-69
2023/06/11 00:56:46;;;;;;;12.40;6.30;;;;;;;19.12;55.42;101670.97;6088861;19;20035;-69
2023/06/11 00:58:53;;;;;;;10.32;6.32;;;;;;;19.09;55.87;101677.34;6094031;19;20029;-70
2023/06/11 01:01:05;;;;;;;10.38;5.70;;;;;;;19.06;56.07;101672.19;6093493;19;20603;-69
2023/06/11 01:03:17;;;;;;;8.93;5.85;;;;;;;19.01;56.45;101669.84;6096164;19;20023;-69
2023/06/11 01:05:25;;;;;;;;;;;;;;;18.98;56.55;101667.34;6093364;19;20031;-69
2023/06/11 01:07:37;;;;;;;10.43;5.85;;;;;;;18.95;56.57;101666.69;6097103;19;20387;-69
2023/06/11 01:09:45;;;;;;;10.02;6.10;;;;;;;18.91;56.92;101670.50;6096434;19;20563;-70
2023/06/11 01:11:55;;;;;;;11.20;6.15;;;;;;;18.88;56.85;101668.91;6094500;19;20002;-72
2023/06/11 01:14:00;;;;;;;11.55;6.25;;;;;;;18.82;57.13;101659.44;6096273;19;20007;-70
2023/06/11 01:16:13;;;;;;;10.45;5.85;;;;;;;18.78;56.92;101665.09;6085924;19;20007;-70
2023/06/11 01:18:22;;;;;;;11.38;6.28;;;;;;;18.72;57.11;101668.94;6091571;19;20535;-70
2023/06/11 01:20:37;;;;;;;12.25;6.43;;;;;;;18.69;58.37;101663.78;6090108;19;20006;-70
2023/06/11 01:23:00;;;;;;;10.98;6.45;;;;;;;18.64;58.30;101660.56;6090042;19;20217;-70
2023/06/11 01:25:20;;;;;;;11.38;6.25;;;;;;;18.62;58.06;101660.66;6090861;19;20007;-71
2023/06/11 01:27:37;;;;;;;10.45;6.05;;;;;;;18.62;58.35;101659.81;6091168;19;20013;-71
2023/06/11 01:29:49;;;;;;;10.73;7.00;;;;;;;18.60;58.65;101659.06;6088967;19;20428;-70
2023/06/11 01:31:58;;;;;;;12.13;6.55;;;;;;;18.58;58.52;101660.94;6091867;19;20408;-70
2023/06/11 01:34:04;;;;;;;10.38;6.10;;;;;;;18.51;58.70;101660.47;6093127;19;20029;-71
2023/06/11 01:36:10;;;;;;;11.18;6.03;;;;;;;18.50;58.98;101655.22;6091794;19;20034;-71
2023/06/11 01:38:21;;;;;;;10.65;6.88;;;;;;;18.45;59.22;101666.16;6090847;19;20042;-70
2023/06/11 01:40:27;;;;;;;10.13;6.55;;;;;;;18.42;58.91;101661.88;6088204;19;20498;-70
2023/06/11 01:42:32;;;;;;;11.10;6.57;;;;;;;18.42;59.38;101661.00;6090791;19;20010;-70
2023/06/11 01:44:37;;;;;;;10.05;6.13;;;;;;;18.38;60.57;101655.03;6093976;19;20010;-71
2023/06/11 01:46:46;;;;;;;10.30;6.50;;;;;;;18.35;59.82;101659.66;6089630;19;20287;-70
2023/06/11 01:48:53;;;;;;;12.07;6.30;;;;;;;18.29;60.05;101655.56;6089987;19;20494;-71
2023/06/11 01:50:58;;;;;;;11.27;6.45;;;;;;;18.23;60.13;101655.94;6092470;19;20011;-71
2023/06/11 01:53:03;;;;;;;10.65;7.47;;;;;;;18.26;60.88;101665.56;6087653;19;20474;-69
2023/06/11 01:55:09;;;;;;;11.70;7.30;;;;;;;18.27;60.83;101660.13;6090370;19;20565;-70
2023/06/11 01:57:15;;;;;;;10.52;6.05;;;;;;;18.26;60.76;101654.91;6085682;19;20014;-70
2023/06/11 01:59:23;;;;;;;10.82;6.28;;;;;;;18.24;61.30;101662.13;6089701;19;20006;-69
2023/06/11 02:01:28;;;;;;;10.90;6.85;;;;;;;18.20;60.89;101658.81;6096307;19;20523;-70
2023/06/11 02:03:37;;;;;;;11.25;7.05;;;;;;;18.16;60.96;101657.25;6092896;19;20018;-71
2023/06/11 02:05:42;;;;;;;10.95;6.70;;;;;;;18.13;61.63;101654.78;6090752;19;20011;-71
2023/06/11 02:07:48;;;;;;;10.38;6.75;;;;;;;18.13;62.60;101654.78;6089567;19;20007;-71
2023/06/11 02:09:55;;;;;;;11.27;6.57;;;;;;;18.13;62.46;101660.94;6093025;19;20003;-71
2023/06/11 02:12:00;;;;;;;11.95;6.90;;;;;;;18.12;62.85;101659.25;6093324;19;20077;-71
2023/06/11 02:14:05;;;;;;;11.13;7.68;;;;;;;18.14;63.03;101659.13;6089228;19;20010;-71
2023/06/11 02:16:10;;;;;;;10.13;6.55;;;;;;;18.15;62.66;101663.53;6089559;19;20007;-70
2023/06/11 02:18:16;;;;;;;12.45;7.78;;;;;;;18.15;62.40;101660.88;6088924;19;20023;-71
2023/06/11 02:20:23;;;;;;;14.48;7.70;;;;;;;18.17;63.00;101659.00;6090751;19;20032;-70
2023/06/11 02:22:28;;;;;;;11.38;6.82;;;;;;;18.19;64.23;101665.03;6071359;19;20035;-69
2023/06/11 02:24:34;;;;;;;11.32;7.35;;;;;;;18.23;63.23;101661.28;6089202;19;20489;-70
2023/06/11 02:26:40;;;;;;;12.13;8.07;;;;;;;18.28;63.36;101672.50;6093872;19;20007;-69
2023/06/11 02:28:45;;;;;;;13.52;8.05;;;;;;;18.30;63.02;101664.41;6091198;19;20559;-69
2023/06/11 02:30:52;;;;;;;11.93;7.90;;;;;;;18.29;63.17;101665.38;6093266;19;20483;-70
2023/06/11 02:32:57;;;;;;;12.05;7.63;;;;;;;18.29;63.22;101670.69;6091110;19;20011;-70
2023/06/11 02:35:02;;;;;;;12.85;8.00;;;;;;;18.30;63.37;101662.63;6088309;19;20013;-71
2023/06/11 02:37:10;;;;;;;12.13;7.65;;;;;;;18.34;63.66;101664.13;6088407;19;20333;-70
2023/06/11 02:39:16;;;;;;;11.55;7.65;;;;;;;18.36;63.68;101664.91;6085048;19;20006;-70
2023/06/11 02:41:21;;;;;;;12.07;8.35;;;;;;;18.38;64.49;101656.84;6087428;19;20007;-69
2023/06/11 02:43:26;;;;;;;13.30;7.70;;;;;;;18.39;63.94;101663.88;6087084;19;20745;-70
2023/06/11 02:45:31;;;;;;;12.00;7.90;;;;;;;18.36;64.02;101662.25;6090091;19;20714;-70
2023/06/11 02:47:36;;;;;;;14.20;8.60;;;;;;;18.36;64.34;101662.25;6088723;19;20074;-71
2023/06/11 02:49:41;;;;;;;11.82;7.65;;;;;;;18.36;64.26;101670.22;6087937;19;19998;-70
2023/06/11 02:51:46;;;;;;;13.48;8.20;;;;;;;18.33;64.99;101674.91;6088658;19;20425;-70
2023/06/11 02:53:54;;;;;;;12.80;9.05;;;;;;;18.28;64.49;101664.50;6087325;19;20123;-70
2023/06/11 02:56:01;;;;;;;14.98;9.23;;;;;;;18.28;65.21;101672.50;6089135;19;20007;-69
2023/06/11 02:58:06;;;;;;;13.40;8.75;;;;;;;18.29;65.09;101665.38;6086227;19;20068;-69
2023/06/11 03:00:13;;;;;;;17.17;8.75;;;;;;;18.36;65.05;101666.72;6087601;19;20475;-69
2023/06/11 03:02:18;;;;;;;15.70;9.65;;;;;;;18.38;64.90;101664.84;6085109;19;20019;-70
2023/06/11 03:04:23;;;;;;;15.23;8.93;;;;;;;18.42;65.50;101672.50;6083843;19;20331;-70
2023/06/11 03:06:28;;;;;;;14.82;10.18;;;;;;;18.49;65.36;101659.72;6091888;19;20133;-70
2023/06/11 03:08:33;;;;;;;13.02;9.43;;;;;;;18.50;65.31;101665.88;6088930;19;20399;-70
2023/06/11 03:10:41;;;;;;;12.50;9.13;;;;;;;18.49;65.69;101665.03;6094169;19;20594;-70
2023/06/11 03:12:47;;;;;;;13.32;9.48;;;;;;;18.51;65.39;101662.25;6093726;19;20014;-71
2023/06/11 03:14:55;;;;;;;15.93;9.55;;;;;;;18.48;66.05;101662.44;6094661;19;20017;-70
2023/06/11 03:17:00;;;;;;;14.02;10.23;;;;;;;18.46;65.89;101667.88;6092925;19;20026;-70
2023/06/11 03:19:05;;;;;;;15.43;9.75;;;;;;;18.53;65.79;101660.38;6091956;19;20010;-72
2023/06/11 03:21:10;;;;;;;15.30;10.25;;;;;;;18.54;65.99;101670.94;6091179;19;20003;-70
2023/06/11 03:23:18;;;;;;;17.77;10.95;;;;;;;18.56;66.06;101657.50;6095216;19;20457;-69
2023/06/11 03:25:23;;;;;;;13.13;9.90;;;;;;;18.56;66.30;101660.16;6091965;19;20516;-70
2023/06/11 03:27:33;;;;;;;14.02;10.25;;;;;;;18.56;66.38;101660.16;6094116;19;20017;-70
2023/06/11 03:29:38;;;;;;;15.85;9.48;;;;;;;18.57;66.56;101651.25;6094331;19;20035;-69
2023/06/11 03:31:43;;;;;;;14.07;9.40;;;;;;;18.54;66.36;101659.44;6093664;19;20196;-69
2023/06/11 03:33:50;;;;;;;13.98;9.88;;;;;;;18.51;66.66;101662.25;6092758;19;20007;-70
2023/06/11 03:35:55;;;;;;;15.65;11.40;;;;;;;18.49;67.02;101661.50;6094376;19;20007;-70
2023/06/11 03:38:00;;;;;;;14.27;11.35;;;;;;;18.47;67.01;101655.44;6094158;19;20080;-69
2023/06/11 03:40:06;;;;;;;14.75;10.23;;;;;;;18.46;67.26;101659.91;6089190;19;20121;-70
2023/06/11 03:42:11;;;;;;;13.98;10.07;;;;;;;18.49;67.08;101656.19;6093439;19;20007;-69
2023/06/11 03:44:22;;;;;;;14.98;10.23;;;;;;;18.49;67.32;101674.81;6092202;19;20668;-69
2023/06/11 03:46:27;;;;;;;17.92;10.57;;;;;;;18.49;67.42;101673.00;6092786;19;20349;-70
2023/06/11 03:48:32;;;;;;;13.27;9.93;;;;;;;18.49;67.40;101666.84;6090241;19;20042;-69
2023/06/11 03:50:37;;;;;;;17.17;10.30;;;;;;;18.51;67.42;101673.78;6094545;19;20070;-70
2023/06/11 03:52:43;;;;;;;13.82;10.43;;;;;;;18.53;67.75;101669.19;6090522;19;20255;-74
2023/06/11 03:54:48;;;;;;;15.98;11.45;;;;;;;18.53;67.83;101674.53;6094552;19;20007;-70
2023/06/11 03:56:56;;;;;;;16.10;10.93;;;;;;;18.54;67.59;101670.94;6096741;19;20015;-70
2023/06/11 03:59:01;;;;;;;15.35;10.73;;;;;;;18.55;68.00;101669.13;6095271;19;20007;-70
2023/06/11 04:01:08;;;;;;;16.80;11.45;;;;;;;18.58;67.89;101667.13;6091762;19;20534;-69
2023/06/11 04:03:13;;;;;;;17.45;11.38;;;;;;;18.59;68.07;101666.19;6092993;19;20010;-70
2023/06/11 04:05:20;;;;;;;13.45;10.82;;;;;;;18.61;68.04;101672.25;6096036;19;20007;-69
2023/06/11 04:07:25;;;;;;;15.20;11.02;;;;;;;18.69;68.19;101669.13;6096750;19;20562;-71
2023/06/11 04:09:31;;;;;;;17.40;11.70;;;;;;;18.72;68.19;101663.63;6093420;19;20014;-70
2023/06/11 04:11:37;;;;;;;17.60;12.13;;;;;;;18.75;68.55;101668.78;6095571;19;20028;-69
2023/06/11 04:13:42;;;;;;;17.77;11.82;;;;;;;18.79;68.58;101672.97;6097041;19;20376;-69
2023/06/11 04:15:47;;;;;;;16.40;12.27;;;;;;;18.82;68.28;101670.09;6096866;19;19999;-69
2023/06/11 04:17:57;;;;;;;14.95;11.18;;;;;;;18.85;68.55;101663.72;6094870;19;20115;-70
2023/06/11 04:20:02;;;;;;;17.02;12.07;;;;;;;18.88;68.54;101676.88;6098696;19;20019;-69
2023/06/11 04:22:07;;;;;;;15.75;11.38;;;;;;;18.90;68.51;101674.97;6094017;19;20507;-69
2023/06/11 04:24:12;;;;;;;16.70;11.90;;;;;;;18.91;68.60;101681.16;6091026;19;20010;-69
2023/06/11 04:26:19;;;;;;;15.60;11.85;;;;;;;18.95;68.42;101690.66;6091306;19;20038;-69
2023/06/11 04:28:27;;;;;;;17.92;12.55;;;;;;;19.05;68.48;101686.47;6091093;19;20480;-69
2023/06/11 04:30:33;;;;;;;19.08;12.05;;;;;;;19.11;68.18;101683.41;6093141;19;20277;-69
2023/06/11 04:32:40;;;;;;;18.85;12.40;;;;;;;19.17;68.44;101690.16;6095021;19;20015;-69
2023/06/11 04:34:52;;;;;;;18.77;11.57;;;;;;;19.18;68.30;101684.75;6095877;19;20282;-69
2023/06/11 04:36:58;;;;;;;18.17;12.57;;;;;;;19.21;68.16;101681.03;6088634;19;20590;-71
2023/06/11 04:39:05;;;;;;;17.10;12.95;;;;;;;19.29;68.29;101689.38;6096161;19;20045;-70
2023/06/11 04:41:14;;;;;;;17.05;13.20;;;;;;;19.42;68.02;101692.13;6088456;19;20350;-70
2023/06/11 04:43:22;;;;;;;16.35;12.75;;;;;;;19.49;67.73;101688.97;6093374;19;20643;-70
2023/06/11 04:45:28;;;;;;;17.10;11.95;;;;;;;19.57;67.77;101676.97;6086943;19;20038;-70
2023/06/11 04:47:33;;;;;;;16.77;11.68;;;;;;;19.65;67.76;101680.84;6092805;19;20011;-72
2023/06/11 04:49:43;;;;;;;17.15;12.38;;;;;;;19.78;67.54;101690.75;6092281;19;20019;-71
2023/06/11 04:51:57;;;;;;;15.40;11.43;;;;;;;19.90;66.99;101690.75;6091859;19;20699;-69
2023/06/11 04:54:07;;;;;;;16.73;13.00;;;;;;;20.06;66.27;101697.75;6087196;19;20139;-70
2023/06/11 04:56:12;;;;;;;16.88;12.60;;;;;;;20.17;65.86;101695.25;6088096;19;20082;-70
2023/06/11 04:58:20;;;;;;;17.10;13.13;;;;;;;20.31;65.74;101694.28;6092825;19;20080;-70
2023/06/11 05:00:26;;;;;;;17.63;11.95;;;;;;;20.41;65.36;101698.06;6094327;19;20011;-69
2023/06/11 05:02:32;;;;;;;17.75;11.68;;;;;;;20.58;65.09;101691.56;6091554;19;20360;-71
2023/06/11 05:04:37;;;;;;;16.30;12.35;;;;;;;20.72;64.04;101691.50;6096040;19;20106;-69
2023/06/11 05:06:45;;;;;;;18.10;13.18;;;;;;;20.84;63.36;101695.09;6090690;19;20083;-70
2023/06/11 05:08:54;;;;;;;16.95;12.70;;;;;;;20.99;63.58;101691.34;6096481;19;20487;-70
2023/06/11 05:11:01;;;;;;;17.75;13.65;;;;;;;21.14;63.13;101688.53;6097238;19;20017;-70
2023/06/11 05:13:06;;;;;;;20.95;13.02;;;;;;;21.32;62.69;101689.88;6095243;19;20583;-69
2023/06/11 05:15:13;;;;;;;19.10;13.60;;;;;;;21.46;62.27;101689.78;6098702;19;20050;-69
2023/06/11 05:17:18;;;;;;;18.83;13.45;;;;;;;21.67;61.54;101692.69;6092077;19;20074;-71
2023/06/11 05:19:24;;;;;;;16.60;12.35;;;;;;;21.75;60.69;101683.22;6093564;19;20380;-70
2023/06/11 05:21:30;;;;;;;15.30;12.55;;;;;;;21.96;61.01;101691.47;6091962;19;20548;-69
2023/06/11 05:23:39;;;;;;;17.50;13.02;;;;;;;22.16;60.06;101693.50;6095305;19;20037;-71
2023/06/11 05:25:50;;;;;;;16.88;12.68;;;;;;;22.33;59.34;101694.94;6096041;19;20121;-70
2023/06/11 05:27:58;;;;;;;18.67;13.18;;;;;;;22.44;59.07;101697.66;6096621;19;20368;-70
2023/06/11 05:30:03;;;;;;;17.25;12.88;;;;;;;22.57;58.51;101700.22;6096108;19;20522;-70
2023/06/11 05:32:10;;;;;;;16.30;12.68;;;;;;;22.79;58.00;101696.72;6094102;19;20007;-69
2023/06/11 05:34:16;;;;;;;17.30;13.70;;;;;;;22.82;57.55;101696.47;6099077;19;20006;-70
2023/06/11 05:36:22;;;;;;;17.30;12.38;;;;;;;23.07;57.10;101700.78;6096532;19;20336;-68
2023/06/11 05:38:28;;;;;;;17.83;13.32;;;;;;;23.14;56.84;101699.31;6095617;19;20038;-70
2023/06/11 05:40:36;;;;;;;20.05;14.05;;;;;;;23.38;56.40;101703.66;6096699;19;20015;-70
2023/06/11 05:42:44;;;;;;;22.00;14.10;;;;;;;23.32;56.00;101705.03;6097745;19;20010;-70
2023/06/11 05:44:49;;;;;;;18.58;13.60;;;;;;;23.58;55.61;101697.53;6099232;19;20014;-71
2023/06/11 05:46:55;;;;;;;18.90;13.70;;;;;;;23.71;55.65;101691.16;6096494;19;20017;-70
2023/06/11 05:49:00;;;;;;;19.75;15.38;;;;;;;23.76;54.15;101699.72;6095413;19;20011;-69
2023/06/11 05:51:06;;;;;;;21.38;15.13;;;;;;;23.86;54.66;101695.31;6090638;19;20011;-70
2023/06/11 05:53:11;;;;;;;19.42;14.32;;;;;;;24.12;54.31;101695.81;6089783;19;20085;-70
2023/06/11 05:55:16;;;;;;;18.67;14.00;;;;;;;24.07;54.45;101693.50;6092623;19;20003;-70
2023/06/11 05:57:23;;;;;;;19.95;15.02;;;;;;;24.25;53.86;101693.78;6092057;19;20101;-71
2023/06/11 05:59:30;;;;;;;21.33;15.23;;;;;;;24.49;53.50;101698.06;6089405;19;20547;-70
2023/06/11 06:01:36;;;;;;;20.52;14.95;;;;;;;24.49;53.34;101701.59;6092377;19;20007;-69
2023/06/11 06:03:42;;;;;;;21.08;15.55;;;;;;;24.67;53.15;101698.28;6095050;19;20205;-69
2023/06/11 06:05:47;;;;;;;22.48;14.90;;;;;;;24.85;52.25;101701.22;6094214;19;20018;-70
2023/06/11 06:07:54;;;;;;;19.73;14.68;;;;;;;25.07;51.75;101705.59;6086576;19;20076;-70
2023/06/11 06:10:03;;;;;;;20.88;15.00;;;;;;;25.14;51.23;101702.19;6089917;19;20087;-70
2023/06/11 06:12:10;;;;;;;21.45;15.45;;;;;;;25.12;51.51;101706.00;6088160;19;20507;-69
2023/06/11 06:14:15;;;;;;;25.85;16.35;;;;;;;25.14;51.48;101706.72;6091228;19;20626;-70
2023/06/11 06:16:27;;;;;;;22.80;15.80;;;;;;;25.19;51.08;101709.88;6089802;19;21454;-71
2023/06/11 06:18:33;;;;;;;24.17;16.75;;;;;;;25.10;51.06;101698.06;6088588;19;20003;-70
2023/06/11 06:20:38;;;;;;;22.58;15.45;;;;;;;25.43;50.69;101706.84;6091206;19;20007;-70
2023/06/11 06:22:43;;;;;;;21.02;16.27;;;;;;;25.17;50.26;101711.84;6088156;19;20038;-71
2023/06/11 06:24:51;;;;;;;22.73;16.48;;;;;;;25.45;49.96;101706.72;6090295;19;20010;-70
2023/06/11 06:26:58;;;;;;;24.05;16.88;;;;;;;25.51;50.17;101704.31;6091921;19;20333;-70
2023/06/11 06:29:03;;;;;;;22.92;15.57;;;;;;;25.67;49.82;101709.13;6091660;19;20381;-69
2023/06/11 06:31:12;;;;;;;23.98;16.85;;;;;;;25.76;49.05;101710.16;6094794;19;20420;-70
2023/06/11 06:33:20;;;;;;;22.17;15.55;;;;;;;25.92;48.31;101701.56;6097655;19;20017;-70
2023/06/11 06:35:25;;;;;;;26.45;17.50;;;;;;;26.11;48.52;101696.16;6100437;19;20613;-70
2023/06/11 06:37:30;;;;;;;26.77;17.95;;;;;;;25.94;48.44;101703.13;6098829;19;20642;-69
2023/06/11 06:39:35;;;;;;;21.38;16.63;;;;;;;26.16;48.49;101699.28;6100931;19;20309;-70
2023/06/11 06:41:40;;;;;;;26.13;17.98;;;;;;;25.97;48.43;101704.69;6100530;19;20684;-70
2023/06/11 06:43:46;;;;;;;22.65;16.40;;;;;;;26.10;47.71;101705.25;6099769;19;20007;-69
2023/06/11 06:45:51;;;;;;;27.17;17.48;;;;;;;26.33;47.62;101703.09;6098284;19;20420;-70
2023/06/11 06:47:56;;;;;;;27.98;17.17;;;;;;;26.26;47.87;101715.44;6105150;19;20361;-71
2023/06/11 06:50:07;;;;;;;23.83;16.95;;;;;;;26.26;48.16;101710.06;6103549;19;20018;-71
2023/06/11 06:52:13;;;;;;;27.60;17.92;;;;;;;26.46;47.13;101705.47;6098885;19;20010;-70
2023/06/11 06:54:19;;;;;;;23.70;17.10;;;;;;;26.73;46.81;101706.59;6094849;19;20017;-70
2023/06/11 06:56:24;;;;;;;24.42;17.35;;;;;;;26.65;46.72;101707.31;6097856;19;20044;-70
2023/06/11 06:58:32;;;;;;;25.25;18.25;;;;;;;26.65;46.71;101716.25;6095840;19;20138;-69
2023/06/11 07:00:37;;;;;;;24.40;16.95;;;;;;;26.89;46.77;101707.66;6100348;19;20313;-74
2023/06/11 07:02:43;;;;;;;25.30;18.50;;;;;;;26.70;46.24;101713.97;6094523;19;20086;-74
2023/06/11 07:04:53;;;;;;;23.05;17.17;;;;;;;26.78;46.52;101704.28;6094065;19;20005;-73
2023/06/11 07:07:00;;;;;;;28.23;18.00;;;;;;;27.04;45.36;101710.75;6095369;19;20047;-73
2023/06/11 07:09:06;;;;;;;28.92;18.63;;;;;;;26.98;45.48;101708.63;6095289;19;20074;-72
2023/06/11 07:11:11;;;;;;;29.70;18.92;;;;;;;26.74;45.82;101721.75;6098866;19;20365;-73
2023/06/11 07:13:17;;;;;;;27.10;18.35;;;;;;;26.91;46.28;101716.47;6097168;19;20009;-73
2023/06/11 07:15:24;;;;;;;28.08;18.42;;;;;;;27.11;45.59;101710.97;6099205;19;20335;-74
2023/06/11 07:17:29;;;;;;;25.98;18.92;;;;;;;27.47;45.55;101705.72;6095232;19;20031;-73
2023/06/11 07:19:34;;;;;;;26.30;17.70;;;;;;;27.67;44.46;101707.25;6101004;19;20042;-74
2023/06/11 07:21:40;;;;;;;27.67;19.10;;;;;;;27.75;44.99;101711.91;6097594;19;20470;-73
2023/06/11 07:23:47;;;;;;;30.02;20.00;;;;;;;27.67;44.90;101715.34;6097541;19;20034;-73
2023/06/11 07:25:55;;;;;;;28.92;18.23;;;;;;;27.68;44.60;101710.81;6096213;19;20025;-73
2023/06/11 07:28:01;;;;;;;27.55;18.90;;;;;;;27.70;44.69;101711.50;6088673;19;20006;-72
2023/06/11 07:30:08;;;;;;;27.02;18.70;;;;;;;28.07;44.16;101710.53;6099186;19;20018;-72
2023/06/11 07:32:13;;;;;;;27.45;19.33;;;;;;;27.82;44.08;101715.72;6091906;19;20148;-71
2023/06/11 07:34:20;;;;;;;27.60;19.02;;;;;;;27.85;44.22;101710.00;6091765;19;20406;-72
2023/06/11 07:36:25;;;;;;;27.17;18.88;;;;;;;27.98;44.45;101706.91;6093800;19;20014;-73
2023/06/11 07:38:35;;;;;;;34.92;19.17;;;;;;;28.38;43.88;101708.25;6094567;19;20019;-73
2023/06/11 07:40:43;;;;;;;27.50;19.52;;;;;;;28.38;43.42;101700.97;6093486;19;20997;-72
2023/06/11 07:42:51;;;;;;;24.45;17.23;;;;;;;28.75;42.77;101699.06;6090167;19;20633;-74
2023/06/11 07:44:56;;;;;;;26.50;19.15;;;;;;;28.39;43.01;101700.00;6094593;19;20007;-73
2023/06/11 07:47:02;;;;;;;23.13;17.92;;;;;;;28.98;42.29;101700.19;6101687;19;20085;-74
2023/06/11 07:49:08;;;;;;;25.10;18.55;;;;;;;29.05;41.60;101708.56;6099921;19;20386;-73
2023/06/11 07:51:15;;;;;;;31.92;19.13;;;;;;;29.19;41.70;101702.50;6098885;19;20027;-72
2023/06/11 07:53:24;;;;;;;27.48;19.55;;;;;;;29.17;41.89;101714.50;6097806;19;20351;-73
2023/06/11 07:55:31;;;;;;;25.77;18.60;;;;;;;29.15;41.46;101703.88;6101399;19;20086;-74
2023/06/11 07:57:39;;;;;;;23.73;17.83;;;;;;;29.24;41.72;101708.28;6102368;19;20017;-72
2023/06/11 07:59:45;;;;;;;26.00;18.83;;;;;;;29.30;41.11;101707.63;6101832;19;20011;-72
2023/06/11 08:01:50;;;;;;;28.80;19.15;;;;;;;29.56;40.92;101703.97;6101146;19;20009;-73
2023/06/11 08:03:59;;;;;;;31.00;20.27;;;;;;;29.37;41.52;101707.00;6104845;19;20010;-71
2023/06/11 08:06:06;;;;;;;25.52;19.27;;;;;;;29.39;41.57;101713.09;6094092;19;20026;-71
2023/06/11 08:08:11;;;;;;;24.70;17.48;;;;;;;29.55;40.46;101705.00;6101942;19;20083;-73
2023/06/11 08:10:17;;;;;;;26.67;18.13;;;;;;;29.65;41.12;101696.75;6096014;19;20094;-73
2023/06/11 08:12:25;;;;;;;27.23;17.52;;;;;;;29.75;40.52;101702.84;6097759;19;20078;-73
2023/06/11 08:14:34;;;;;;;25.13;19.33;;;;;;;29.23;41.40;101701.19;6099523;19;20010;-75
2023/06/11 08:16:40;;;;;;;26.52;17.05;;;;;;;29.57;41.56;101699.41;6097432;19;20407;-76
2023/06/11 08:18:45;;;;;;;26.95;18.58;;;;;;;29.42;40.55;101693.81;6094563;19;20069;-72
2023/06/11 08:20:52;;;;;;;29.52;21.20;;;;;;;29.75;40.79;101690.19;6100764;19;20082;-75
2023/06/11 08:22:57;;;;;;;27.02;18.85;;;;;;;29.89;40.98;101701.38;6101887;19;20011;-74
2023/06/11 08:25:02;;;;;;;94.70;88.28;;;;;;;30.38;40.17;101701.38;6096967;19;20006;-79
2023/06/11 08:27:09;;;;;;;39.42;35.10;;;;;;;30.71;38.79;101690.47;6101024;19;20038;-74
2023/06/11 08:29:14;;;;;;;27.92;21.63;;;;;;;30.43;39.08;101692.72;6100340;19;20512;-74
2023/06/11 08:31:25;;;;;;;25.00;17.02;;;;;;;30.88;38.68;101683.97;6098866;19;20520;-73
2023/06/11 08:33:36;;;;;;;26.58;19.55;;;;;;;30.83;39.00;101689.09;6100946;19;20077;-79
2023/06/11 08:35:43;;;;;;;26.73;20.92;;;;;;;30.65;39.56;101686.59;6093534;19;20593;-73
2023/06/11 08:37:50;;;;;;;27.33;20.05;;;;;;;30.72;39.21;101686.72;6092810;19;20476;-72
2023/06/11 08:39:55;;;;;;;35.53;26.80;;;;;;;30.80;38.81;101684.81;6095657;19;20439;-73
2023/06/11 08:42:03;;;;;;;26.65;23.08;;;;;;;30.63;39.24;101689.47;6094994;19;20022;-72
2023/06/11 08:44:09;;;;;;;25.77;18.33;;;;;;;30.49;39.24;101684.75;6083242;19;20075;-77
2023/06/11 08:46:16;;;;;;;27.48;19.15;;;;;;;30.46;39.86;101689.66;6097920;19;20500;-76
2023/06/11 08:48:30;;;;;;;25.42;19.90;;;;;;;30.26;39.79;101694.63;6096240;19;20571;-73
2023/06/11 08:50:35;;;;;;;24.83;18.27;;;;;;;30.47;40.43;101694.09;6096136;19;20480;-73
2023/06/11 08:52:43;;;;;;;25.90;18.48;;;;;;;30.68;39.40;101679.97;6090284;19;20093;-73
2023/06/11 08:54:48;;;;;;;25.13;17.08;;;;;;;30.86;39.70;101687.88;6093071;19;20011;-73
2023/06/11 08:56:58;;;;;;;24.85;19.58;;;;;;;30.99;39.62;101683.63;6099299;19;20596;-72
2023/06/11 08:59:05;;;;;;;24.15;17.77;;;;;;;30.88;39.19;101688.56;6091926;19;20002;-72
2023/06/11 09:01:11;;;;;;;25.30;17.05;;;;;;;30.66;39.74;101684.72;6089449;19;20286;-72
2023/06/11 09:03:17;;;;;;;24.20;18.30;;;;;;;30.83;39.40;101672.81;6094023;19;20025;-73
2023/06/11 09:05:28;;;;;;;26.50;18.35;;;;;;;31.19;38.88;101683.19;6098329;19;20478;-79
2023/06/11 09:07:33;;;;;;;316.92;292.05;;;;;;;31.39;39.42;101678.19;6098940;19;20006;-77
2023/06/11 09:09:41;;;;;;;815.35;737.33;;;;;;;31.24;39.10;101675.34;6097030;19;20086;-76
2023/06/11 09:11:48;;;;;;;61.88;53.63;;;;;;;31.32;39.40;101667.16;6100213;19;20017;-77
2023/06/11 09:13:58;;;;;;;43.53;18.98;;;;;;;31.33;39.09;101668.00;6098432;19;20475;-74
2023/06/11 09:16:03;;;;;;;23.88;17.35;;;;;;;30.93;39.99;101668.03;6098587;19;20451;-75
2023/06/11 09:18:08;;;;;;;23.10;16.83;;;;;;;30.92;39.88;101665.50;6086200;19;20006;-73
2023/06/11 09:20:16;;;;;;;22.38;16.83;;;;;;;31.18;39.94;101676.06;6093541;19;20010;-72
2023/06/11 09:22:34;;;;;;;26.42;18.27;;;;;;;31.18;39.59;101676.91;6101925;19;20017;-71
2023/06/11 09:24:42;;;;;;;22.20;17.30;;;;;;;31.35;37.83;101672.22;6092276;19;20866;-74
2023/06/11 09:26:58;;;;;;;23.10;17.17;;;;;;;30.99;39.31;101680.91;6094432;19;21282;-73
2023/06/11 09:29:04;;;;;;;21.70;16.95;;;;;;;31.44;38.41;101681.22;6100519;19;20098;-74
2023/06/11 09:31:09;;;;;;;21.85;16.08;;;;;;;31.52;38.57;101677.56;6101245;19;20367;-74
2023/06/11 09:33:18;;;;;;;19.75;16.27;;;;;;;31.46;38.67;101676.44;6099569;19;20019;-75
2023/06/11 09:35:25;;;;;;;25.13;16.40;;;;;;;31.64;38.39;101676.16;6100176;19;20029;-73
2023/06/11 09:37:41;;;;;;;22.83;17.20;;;;;;;31.73;38.25;101676.94;6099984;19;20014;-74
2023/06/11 09:39:46;;;;;;;25.20;16.33;;;;;;;31.57;38.53;101680.59;6096541;19;20006;-72